Airfield :
LOGIN :

Register | Disclaimer

   EN    FR    IT 

 










Legend :    VFR   Marginal VFR   IFR   Intensive IFR   Very Intensive IFR
Visi :
Ceiling :
>= 8 km
>= 3000ft
5 to 8 km
1000 to 3000 ft
1500m to 5 km
500 to 1000 ft
800 to 1500m
200 to 500 ft
< 800m
< 200 ft
Symbols :   Thunderstorms  Fog  Heavy snow  Heavy precipitations  Wind > 20 kt
SIGMETs :     Misc.  Thunderstorms  Icing  Turbulence  Mountain Waves  Volcanic Ashes






- Airport Elevation : 1234 ft
- IATA code : LUX


ELLX - Luxembourg Findel

CURRENT METAR :
  • 261720Z 27011KT 9999 FEW012 SCT020 02/M00 Q1006 NOSIG

EXPIRED METARs :
  • 261650Z 25010KT 9999 SCT022 FEW030CB 02/00 Q1005 NOSIG
  • 261620Z 25015KT 9999 VCSH FEW010 SCT020TCU BKN035 03/00 Q1005 NOSIG
  • 261550Z 27011KT 240V300 9999 SCT025 BKN045 04/M02 Q1005 NOSIG
  • 261520Z 27015G30KT 9999 SCT035 SCT045 05/M02 Q1004 NOSIG
  • 261450Z 28013KT 250V310 9999 SCT030 05/M02 Q1004 NOSIG

TAF TAF ELLX
Valid from the 26 at 18:00 until the 28 at 00:00 UTC


261700Z 2618/2724 26015KT 9999 SCT025 BKN040
BECMG 2618/2620 26008KT
TEMPO 2618/2620 27015G30KT -SHRA SCT020TCU
BECMG 2706/2709 16012KT BKN015
TEMPO 2707/2710 4500 -RASN BKN010
TEMPO 2710/2718 16015G25KT 1500 SN BKN003 OVC005
ATIS : +352 4798 27300
Met : +352 4798 27010 / 27050



MET'MAP, your aeronautical weather chart ! - Copyright ORBIFLY December 2007 - Disclaimer

ORBIFLY MET'MAP TEAM :

Programming & Development : Alexandra Zaïnal
Concept & original design : Baudouin d'Aumeries
Assistance for programming : Marc-Olivier Méhu
Technical & hardware support : Manuel Goepfert

Contact : metmap@orbifly.com




SOURCES & CREDITS :

   NOAA